Time,TemperatureF,DewpointF,PressureIn,WindDirection,WindDirectionDegrees,WindSpeedMPH,WindSpeedGustMPH,Humidity,HourlyPrecipIn,Conditions,Clouds,dailyrainin,SoftwareType,DateUTC
2013-06-28 00:02:00,62.0,-99.9,-100.00,North,-999,-999.0,-999.0,-999,0.00,,,0.00,,2013-06-28 04:02:00,
2013-06-28 00:12:00,62.0,-99.9,-100.00,North,-999,-999.0,-999.0,-999,0.00,,,0.00,,2013-06-28 04:12:00,
2013-06-28 00:22:00,62.0,-99.9,-100.00,North,-999,-999.0,-999.0,-999,0.00,,,0.00,,2013-06-28 04:22:00,
2013-06-28 00:30:00,61.0,-99.9,-100.00,North,-999,-999.0,-999.0,-999,0.00,,,0.00,,2013-06-28 04:30:00,
2013-06-28 01:02:00,61.0,-99.9,-100.00,North,-999,-999.0,-999.0,-999,0.00,,,0.00,,2013-06-28 05:02:00,
2013-06-28 01:12:00,61.0,-99.9,-100.00,North,-999,-999.0,-999.0,-999,0.00,,,0.00,,2013-06-28 05:12:00,
2013-06-28 01:22:00,61.0,-99.9,-100.00,North,-999,-999.0,-999.0,-999,0.00,,,0.00,,2013-06-28 05:22:00,
2013-06-28 01:30:00,60.0,-99.9,-100.00,North,-999,-999.0,-999.0,-999,0.00,,,0.00,,2013-06-28 05:30:00,
2013-06-28 02:02:00,60.0,-99.9,-100.00,North,-999,-999.0,-999.0,-999,0.00,,,0.00,,2013-06-28 06:02:00,
2013-06-28 02:12:00,60.0,-99.9,-100.00,North,-999,-999.0,-999.0,-999,0.00,,,0.00,,2013-06-28 06:12:00,
2013-06-28 02:22:00,60.0,-99.9,-100.00,North,-999,-999.0,-999.0,-999,0.00,,,0.00,,2013-06-28 06:22:00,
2013-06-28 03:02:00,59.0,-99.9,-100.00,North,-999,-999.0,-999.0,-999,0.20,,,0.20,,2013-06-28 07:02:00,
2013-06-28 03:22:00,59.0,-99.9,-100.00,North,-999,-999.0,-999.0,-999,-99.99,,,0.34,,2013-06-28 07:22:00,
2013-06-28 03:30:00,58.0,-99.9,-100.00,North,-999,-999.0,-999.0,-999,0.16,,,0.36,,2013-06-28 07:30:00,
2013-06-28 03:34:00,59.0,-99.9,-100.00,North,-999,-999.0,-999.0,-999,-99.99,,,0.34,,2013-06-28 07:34:00,
2013-06-28 03:43:00,59.0,-99.9,-100.00,North,-999,-999.0,-999.0,-999,-99.99,,,0.34,,2013-06-28 07:43:00,
2013-06-28 04:02:00,58.0,-99.9,-100.00,North,-999,-999.0,-999.0,-999,0.16,,,0.36,,2013-06-28 08:02:00,
2013-06-28 04:11:00,58.0,-99.9,-100.00,North,-999,-999.0,-999.0,-999,0.16,,,0.36,,2013-06-28 08:11:00,
2013-06-28 04:22:00,58.0,-99.9,-100.00,North,-999,-999.0,-999.0,-999,0.16,,,0.36,,2013-06-28 08:22:00,
2013-06-28 04:30:00,57.0,-99.9,-100.00,North,-999,-999.0,-999.0,-999,0.00,,,0.36,,2013-06-28 08:30:00,
2013-06-28 05:02:00,57.0,-99.9,-100.00,North,-999,-999.0,-999.0,-999,0.00,,,0.36,,2013-06-28 09:02:00,
2013-06-28 05:12:00,57.0,-99.9,-100.00,North,-999,-999.0,-999.0,-999,0.00,,,0.36,,2013-06-28 09:12:00,
2013-06-28 05:22:00,57.0,-99.9,-100.00,North,-999,-999.0,-999.0,-999,0.00,,,0.36,,2013-06-28 09:22:00,
2013-06-28 05:30:00,56.0,-99.9,-100.00,North,-999,-999.0,-999.0,-999,0.00,,,0.36,,2013-06-28 09:30:00,
2013-06-28 06:02:00,56.0,-99.9,-100.00,North,-999,-999.0,-999.0,-999,0.00,,,0.36,,2013-06-28 10:02:00,
2013-06-28 06:12:00,56.0,-99.9,-100.00,North,-999,-999.0,-999.0,-999,0.00,,,0.36,,2013-06-28 10:12:00,
2013-06-28 06:22:00,56.0,-99.9,-100.00,North,-999,-999.0,-999.0,-999,0.00,,,0.36,,2013-06-28 10:22:00,
2013-06-28 06:30:00,55.0,-99.9,-100.00,North,-999,-999.0,-999.0,-999,0.08,,,0.44,,2013-06-28 10:30:00,
2013-06-28 07:02:00,55.0,-99.9,-100.00,North,-999,-999.0,-999.0,-999,0.08,,,0.44,,2013-06-28 11:02:00,
2013-06-28 07:11:00,55.0,-99.9,-100.00,North,-999,-999.0,-999.0,-999,0.08,,,0.44,,2013-06-28 11:11:00,
2013-06-28 07:22:00,55.0,-99.9,-100.00,North,-999,-999.0,-999.0,-999,0.08,,,0.44,,2013-06-28 11:22:00,
2013-06-28 07:30:00,55.0,-99.9,-100.00,North,-999,-999.0,-999.0,-999,0.05,,,0.49,,2013-06-28 11:30:00,
2013-06-28 08:02:00,55.0,-99.9,-100.00,North,-999,-999.0,-999.0,-999,0.05,,,0.49,,2013-06-28 12:02:00,
2013-06-28 08:12:00,55.0,-99.9,-100.00,North,-999,-999.0,-999.0,-999,0.05,,,0.49,,2013-06-28 12:12:00,
2013-06-28 08:22:00,55.0,-99.9,-100.00,North,-999,-999.0,-999.0,-999,0.05,,,0.49,,2013-06-28 12:22:00,
2013-06-28 09:02:00,55.0,-99.9,-100.00,North,-999,-999.0,-999.0,-999,0.13,,,0.62,,2013-06-28 13:02:00,
2013-06-28 09:11:00,55.0,-99.9,-100.00,North,-999,-999.0,-999.0,-999,0.13,,,0.62,,2013-06-28 13:11:00,
2013-06-28 09:30:00,56.0,-99.9,-100.00,North,-999,-999.0,-999.0,-999,0.03,,,0.65,,2013-06-28 13:30:00,
2013-06-28 09:43:00,55.0,-99.9,-100.00,North,-999,-999.0,-999.0,-999,-99.99,,,0.65,,2013-06-28 13:43:00,
2013-06-28 10:02:00,56.0,-99.9,-100.00,North,-999,-999.0,-999.0,-999,0.03,,,0.65,,2013-06-28 14:02:00,
2013-06-28 10:12:00,56.0,-99.9,-100.00,North,-999,-999.0,-999.0,-999,0.03,,,0.65,,2013-06-28 14:12:00,
2013-06-28 10:22:00,56.0,-99.9,-100.00,North,-999,-999.0,-999.0,-999,0.03,,,0.65,,2013-06-28 14:22:00,
2013-06-28 10:30:00,58.0,-99.9,-100.00,North,-999,-999.0,-999.0,-999,0.00,,,0.65,,2013-06-28 14:30:00,
2013-06-28 11:02:00,58.0,-99.9,-100.00,North,-999,-999.0,-999.0,-999,0.00,,,0.65,,2013-06-28 15:02:00,
2013-06-28 11:11:00,58.0,-99.9,-100.00,North,-999,-999.0,-999.0,-999,0.00,,,0.65,,2013-06-28 15:11:00,
2013-06-28 11:24:00,58.0,-99.9,-100.00,North,-999,-999.0,-999.0,-999,0.00,,,0.65,,2013-06-28 15:24:00,
2013-06-28 11:30:00,58.0,-99.9,-100.00,North,-999,-999.0,-999.0,-999,0.00,,,0.65,,2013-06-28 15:30:00,
2013-06-28 12:02:00,58.0,-99.9,-100.00,North,-999,-999.0,-999.0,-999,0.00,,,0.65,,2013-06-28 16:02:00,
2013-06-28 12:11:00,58.0,-99.9,-100.00,North,-999,-999.0,-999.0,-999,0.00,,,0.65,,2013-06-28 16:11:00,
2013-06-28 12:25:00,58.0,-99.9,-100.00,North,-999,-999.0,-999.0,-999,0.00,,,0.65,,2013-06-28 16:25:00,
2013-06-28 12:30:00,64.0,-99.9,-100.00,North,-999,-999.0,-999.0,-999,0.00,,,0.65,,2013-06-28 16:30:00,
2013-06-28 13:02:00,64.0,-99.9,-100.00,North,-999,-999.0,-999.0,-999,0.00,,,0.65,,2013-06-28 17:02:00,
2013-06-28 13:12:00,64.0,-99.9,-100.00,North,-999,-999.0,-999.0,-999,0.00,,,0.65,,2013-06-28 17:12:00,
2013-06-28 13:22:00,64.0,-99.9,-100.00,North,-999,-999.0,-999.0,-999,0.00,,,0.65,,2013-06-28 17:22:00,
2013-06-28 13:30:00,71.0,-99.9,-100.00,North,-999,-999.0,-999.0,-999,0.00,,,-99.99,,2013-06-28 17:30:00,
2013-06-28 14:02:00,71.0,-99.9,-100.00,North,-999,-999.0,-999.0,-999,0.00,,,-99.99,,2013-06-28 18:02:00,
2013-06-28 14:12:00,71.0,-99.9,-100.00,North,-999,-999.0,-999.0,-999,0.00,,,-99.99,,2013-06-28 18:12:00,
2013-06-28 14:22:00,71.0,-99.9,-100.00,North,-999,-999.0,-999.0,-999,0.00,,,-99.99,,2013-06-28 18:22:00,
2013-06-28 15:02:00,71.0,-99.9,-100.00,North,-999,-999.0,-999.0,-999,0.00,,,0.65,,2013-06-28 19:02:00,
2013-06-28 15:11:00,71.0,-99.9,-100.00,North,-999,-999.0,-999.0,-999,0.00,,,0.65,,2013-06-28 19:11:00,
2013-06-28 15:30:00,77.0,-99.9,-100.00,North,-999,-999.0,-999.0,-999,0.00,,,-99.99,,2013-06-28 19:30:00,
2013-06-28 15:43:00,75.0,-99.9,-100.00,North,-999,-999.0,-999.0,-999,-99.99,,,0.65,,2013-06-28 19:43:00,
2013-06-28 16:02:00,77.0,-99.9,-100.00,North,-999,-999.0,-999.0,-999,0.00,,,-99.99,,2013-06-28 20:02:00,
2013-06-28 16:11:00,77.0,-99.9,-100.00,North,-999,-999.0,-999.0,-999,0.00,,,-99.99,,2013-06-28 20:11:00,
2013-06-28 16:22:00,77.0,-99.9,-100.00,North,-999,-999.0,-999.0,-999,0.00,,,-99.99,,2013-06-28 20:22:00,
2013-06-28 16:30:00,73.0,-99.9,-100.00,North,-999,-999.0,-999.0,-999,0.00,,,0.65,,2013-06-28 20:30:00,
2013-06-28 17:02:00,73.0,-99.9,-100.00,North,-999,-999.0,-999.0,-999,0.00,,,0.65,,2013-06-28 21:02:00,
2013-06-28 17:11:00,73.0,-99.9,-100.00,North,-999,-999.0,-999.0,-999,0.00,,,0.65,,2013-06-28 21:11:00,
2013-06-28 17:23:00,73.0,-99.9,-100.00,North,-999,-999.0,-999.0,-999,0.00,,,0.65,,2013-06-28 21:23:00,
2013-06-28 17:30:00,75.0,-99.9,-100.00,North,-999,-999.0,-999.0,-999,0.00,,,0.65,,2013-06-28 21:30:00,
2013-06-28 18:11:00,75.0,-99.9,-100.00,North,-999,-999.0,-999.0,-999,0.00,,,0.65,,2013-06-28 22:11:00,
2013-06-28 18:22:00,75.0,-99.9,-100.00,North,-999,-999.0,-999.0,-999,0.00,,,0.65,,2013-06-28 22:22:00,
2013-06-28 18:30:00,70.0,-99.9,-100.00,North,-999,-999.0,-999.0,-999,0.00,,,0.65,,2013-06-28 22:30:00,
2013-06-28 19:02:00,70.0,-99.9,-100.00,North,-999,-999.0,-999.0,-999,0.00,,,0.65,,2013-06-28 23:02:00,
2013-06-28 19:12:00,70.0,-99.9,-100.00,North,-999,-999.0,-999.0,-999,0.00,,,0.65,,2013-06-28 23:12:00,
2013-06-28 19:23:00,70.0,-99.9,-100.00,North,-999,-999.0,-999.0,-999,0.00,,,0.65,,2013-06-28 23:23:00,
2013-06-28 19:30:00,73.0,-99.9,-100.00,North,-999,-999.0,-999.0,-999,0.00,,,0.65,,2013-06-28 23:30:00,
2013-06-28 20:02:00,73.0,-99.9,-100.00,North,-999,-999.0,-999.0,-999,0.00,,,0.65,,2013-06-29 00:02:00,
2013-06-28 20:12:00,73.0,-99.9,-100.00,North,-999,-999.0,-999.0,-999,0.00,,,0.65,,2013-06-29 00:12:00,
2013-06-28 20:23:00,73.0,-99.9,-100.00,North,-999,-999.0,-999.0,-999,0.00,,,0.65,,2013-06-29 00:23:00,
2013-06-28 21:01:00,69.0,-99.9,-100.00,North,-999,-999.0,-999.0,-999,0.00,,,0.65,,2013-06-29 01:01:00,
2013-06-28 21:22:00,69.0,-99.9,-100.00,North,-999,-999.0,-999.0,-999,-99.99,,,-99.99,,2013-06-29 01:22:00,
2013-06-28 21:30:00,67.0,-99.9,-100.00,North,-999,-999.0,-999.0,-999,0.00,,,0.65,,2013-06-29 01:30:00,
2013-06-28 21:32:00,69.0,-99.9,-100.00,North,-999,-999.0,-999.0,-999,-99.99,,,-99.99,,2013-06-29 01:32:00,
2013-06-28 21:42:00,69.0,-99.9,-100.00,North,-999,-999.0,-999.0,-999,-99.99,,,-99.99,,2013-06-29 01:42:00,
2013-06-28 22:01:00,67.0,-99.9,-100.00,North,-999,-999.0,-999.0,-999,0.00,,,0.65,,2013-06-29 02:01:00,
2013-06-28 22:11:00,67.0,-99.9,-100.00,North,-999,-999.0,-999.0,-999,0.00,,,0.65,,2013-06-29 02:11:00,
2013-06-28 22:21:00,67.0,-99.9,-100.00,North,-999,-999.0,-999.0,-999,0.00,,,0.65,,2013-06-29 02:21:00,
2013-06-28 22:30:00,67.0,-99.9,-100.00,North,-999,-999.0,-999.0,-999,0.00,,,0.65,,2013-06-29 02:30:00,
2013-06-28 23:01:00,67.0,-99.9,-100.00,North,-999,-999.0,-999.0,-999,0.00,,,0.65,,2013-06-29 03:01:00,
2013-06-28 23:11:00,67.0,-99.9,-100.00,North,-999,-999.0,-999.0,-999,0.00,,,0.65,,2013-06-29 03:11:00,
2013-06-28 23:21:00,67.0,-99.9,-100.00,North,-999,-999.0,-999.0,-999,0.00,,,0.65,,2013-06-29 03:21:00,
2013-06-28 23:30:00,67.0,-99.9,-100.00,North,-999,-999.0,-999.0,-999,0.00,,,0.65,,2013-06-29 03:30:00,